sensor_id;sensor_type;location;lat;lon;timestamp;pressure;altitude;pressure_sealevel;temperature;humidity
56582;BME280;42463;52.214;21.238;2023-02-01T00:00:58;99044.65;;;3.45;77.85
56582;BME280;42463;52.214;21.238;2023-02-01T00:03:24;99036.10;;;3.47;78.22
56582;BME280;42463;52.214;21.238;2023-02-01T00:06:10;99032.98;;;3.49;78.03
56582;BME280;42463;52.214;21.238;2023-02-01T00:08:55;99033.88;;;3.51;78.09
56582;BME280;42463;52.214;21.238;2023-02-01T00:11:21;99030.05;;;3.53;78.01
56582;BME280;42463;52.214;21.238;2023-02-01T00:13:46;99027.05;;;3.54;78.03
56582;BME280;42463;52.214;21.238;2023-02-01T00:16:14;99026.72;;;3.57;78.11
56582;BME280;42463;52.214;21.238;2023-02-01T00:18:40;99028.34;;;3.57;78.12
56582;BME280;42463;52.214;21.238;2023-02-01T00:21:06;99020.40;;;3.57;78.05
56582;BME280;42463;52.214;21.238;2023-02-01T00:23:35;99022.56;;;3.56;78.11
56582;BME280;42463;52.214;21.238;2023-02-01T00:26:07;99017.42;;;3.55;78.21
56582;BME280;42463;52.214;21.238;2023-02-01T00:28:41;99019.77;;;3.58;78.37
56582;BME280;42463;52.214;21.238;2023-02-01T00:31:06;99022.59;;;3.57;78.35
56582;BME280;42463;52.214;21.238;2023-02-01T00:33:39;99024.13;;;3.56;78.17
56582;BME280;42463;52.214;21.238;2023-02-01T00:36:06;99026.19;;;3.56;78.17
56582;BME280;42463;52.214;21.238;2023-02-01T00:38:36;99021.59;;;3.57;78.29
56582;BME280;42463;52.214;21.238;2023-02-01T00:41:04;99025.02;;;3.58;78.61
56582;BME280;42463;52.214;21.238;2023-02-01T00:43:31;99025.56;;;3.58;78.50
56582;BME280;42463;52.214;21.238;2023-02-01T00:46:18;99026.62;;;3.54;78.69
56582;BME280;42463;52.214;21.238;2023-02-01T00:49:06;99025.27;;;3.53;78.68
56582;BME280;42463;52.214;21.238;2023-02-01T00:51:41;99034.17;;;3.57;78.91
56582;BME280;42463;52.214;21.238;2023-02-01T00:54:24;99035.12;;;3.62;78.85
56582;BME280;42463;52.214;21.238;2023-02-01T00:56:59;99033.23;;;3.64;78.80
56582;BME280;42463;52.214;21.238;2023-02-01T00:59:43;99030.69;;;3.66;78.69
56582;BME280;42463;52.214;21.238;2023-02-01T01:02:21;99030.86;;;3.64;78.80
56582;BME280;42463;52.214;21.238;2023-02-01T01:05:00;99028.04;;;3.65;78.23
56582;BME280;42463;52.214;21.238;2023-02-01T01:07:43;99028.45;;;3.70;78.12
56582;BME280;42463;52.214;21.238;2023-02-01T01:10:19;99026.44;;;3.75;77.77
56582;BME280;42463;52.214;21.238;2023-02-01T01:12:49;99029.33;;;3.81;77.54
56582;BME280;42463;52.214;21.238;2023-02-01T01:15:38;99030.72;;;3.89;77.31
56582;BME280;42463;52.214;21.238;2023-02-01T01:18:04;99027.88;;;3.92;77.06
56582;BME280;42463;52.214;21.238;2023-02-01T01:20:29;99025.64;;;3.90;76.60
56582;BME280;42463;52.214;21.238;2023-02-01T01:22:56;99038.77;;;3.88;76.64
56582;BME280;42463;52.214;21.238;2023-02-01T01:25:24;99033.98;;;3.87;76.59
56582;BME280;42463;52.214;21.238;2023-02-01T01:27:59;99035.11;;;3.84;76.42
56582;BME280;42463;52.214;21.238;2023-02-01T01:30:26;99049.13;;;3.88;76.23
56582;BME280;42463;52.214;21.238;2023-02-01T01:32:52;99050.12;;;3.90;76.08
56582;BME280;42463;52.214;21.238;2023-02-01T01:35:17;99055.19;;;3.89;75.90
56582;BME280;42463;52.214;21.238;2023-02-01T01:37:45;99055.63;;;3.89;76.01
56582;BME280;42463;52.214;21.238;2023-02-01T01:40:13;99060.31;;;3.90;75.68
56582;BME280;42463;52.214;21.238;2023-02-01T01:42:59;99060.39;;;3.92;75.26
56582;BME280;42463;52.214;21.238;2023-02-01T01:45:29;99066.23;;;3.94;74.99
56582;BME280;42463;52.214;21.238;2023-02-01T01:48:11;99066.16;;;3.94;74.84
56582;BME280;42463;52.214;21.238;2023-02-01T01:51:03;99061.52;;;3.96;74.94
56582;BME280;42463;52.214;21.238;2023-02-01T01:53:45;99060.15;;;3.97;74.41
56582;BME280;42463;52.214;21.238;2023-02-01T01:56:35;99064.65;;;3.96;74.02
56582;BME280;42463;52.214;21.238;2023-02-01T01:59:00;99065.53;;;3.94;74.13
56582;BME280;42463;52.214;21.238;2023-02-01T02:01:45;99068.80;;;3.91;74.10
56582;BME280;42463;52.214;21.238;2023-02-01T02:04:29;99068.96;;;3.88;73.91
56582;BME280;42463;52.214;21.238;2023-02-01T02:07:20;99070.34;;;3.87;73.97
56582;BME280;42463;52.214;21.238;2023-02-01T02:10:08;99075.90;;;3.89;73.74
56582;BME280;42463;52.214;21.238;2023-02-01T02:12:39;99069.56;;;3.88;73.71
56582;BME280;42463;52.214;21.238;2023-02-01T02:15:25;99076.60;;;3.85;73.29
56582;BME280;42463;52.214;21.238;2023-02-01T02:17:55;99077.84;;;3.82;73.52
56582;BME280;42463;52.214;21.238;2023-02-01T02:21:14;99071.05;;;3.81;73.64
56582;BME280;42463;52.214;21.238;2023-02-01T02:24:40;99068.30;;;3.82;73.60
56582;BME280;42463;52.214;21.238;2023-02-01T02:27:22;99065.63;;;3.80;72.99
56582;BME280;42463;52.214;21.238;2023-02-01T02:30:12;99071.41;;;3.76;72.94
56582;BME280;42463;52.214;21.238;2023-02-01T02:33:01;99078.31;;;3.76;72.71
56582;BME280;42463;52.214;21.238;2023-02-01T02:35:56;99078.92;;;3.76;72.43
56582;BME280;42463;52.214;21.238;2023-02-01T02:38:32;99077.05;;;3.77;72.50
56582;BME280;42463;52.214;21.238;2023-02-01T02:41:07;99077.75;;;3.77;71.85
56582;BME280;42463;52.214;21.238;2023-02-01T02:43:48;99084.61;;;3.77;71.91
56582;BME280;42463;52.214;21.238;2023-02-01T02:46:39;99086.46;;;3.78;72.44
56582;BME280;42463;52.214;21.238;2023-02-01T02:49:26;99091.98;;;3.78;72.17
56582;BME280;42463;52.214;21.238;2023-02-01T02:51:58;99093.05;;;3.81;72.25
56582;BME280;42463;52.214;21.238;2023-02-01T02:54:46;99101.01;;;3.85;72.05
56582;BME280;42463;52.214;21.238;2023-02-01T02:57:21;99103.88;;;3.86;71.71
56582;BME280;42463;52.214;21.238;2023-02-01T03:00:08;99105.59;;;3.86;71.55
56582;BME280;42463;52.214;21.238;2023-02-01T03:03:03;99107.94;;;3.89;71.29
56582;BME280;42463;52.214;21.238;2023-02-01T03:05:47;99113.30;;;3.92;71.72
56582;BME280;42463;52.214;21.238;2023-02-01T03:08:23;99110.75;;;3.90;71.26
56582;BME280;42463;52.214;21.238;2023-02-01T03:10:55;99119.96;;;3.90;71.30
56582;BME280;42463;52.214;21.238;2023-02-01T03:13:28;99116.48;;;3.90;71.13
56582;BME280;42463;52.214;21.238;2023-02-01T03:16:00;99111.09;;;3.88;71.27
56582;BME280;42463;52.214;21.238;2023-02-01T03:18:39;99120.91;;;3.88;71.58
56582;BME280;42463;52.214;21.238;2023-02-01T03:21:13;99119.58;;;3.92;71.68
56582;BME280;42463;52.214;21.238;2023-02-01T03:23:41;99122.40;;;3.93;71.56
56582;BME280;42463;52.214;21.238;2023-02-01T03:26:11;99119.56;;;3.91;71.30
56582;BME280;42463;52.214;21.238;2023-02-01T03:28:55;99121.94;;;3.92;71.65
56582;BME280;42463;52.214;21.238;2023-02-01T03:31:22;99116.51;;;3.88;71.27
56582;BME280;42463;52.214;21.238;2023-02-01T03:33:50;99115.99;;;3.86;71.41
56582;BME280;42463;52.214;21.238;2023-02-01T03:36:25;99120.43;;;3.82;71.42
56582;BME280;42463;52.214;21.238;2023-02-01T03:39:02;99123.00;;;3.81;71.57
56582;BME280;42463;52.214;21.238;2023-02-01T03:41:37;99120.02;;;3.80;71.72
56582;BME280;42463;52.214;21.238;2023-02-01T03:44:12;99123.58;;;3.78;71.72
56582;BME280;42463;52.214;21.238;2023-02-01T03:46:40;99128.23;;;3.77;71.87
56582;BME280;42463;52.214;21.238;2023-02-01T03:49:13;99132.27;;;3.75;72.29
56582;BME280;42463;52.214;21.238;2023-02-01T03:51:41;99134.59;;;3.73;72.82
56582;BME280;42463;52.214;21.238;2023-02-01T03:54:09;99125.15;;;3.72;73.10
56582;BME280;42463;52.214;21.238;2023-02-01T03:56:38;99126.17;;;3.76;73.10
56582;BME280;42463;52.214;21.238;2023-02-01T03:59:05;99134.77;;;3.76;73.56
56582;BME280;42463;52.214;21.238;2023-02-01T04:01:33;99130.58;;;3.73;73.60
56582;BME280;42463;52.214;21.238;2023-02-01T04:04:01;99132.88;;;3.70;73.65
56582;BME280;42463;52.214;21.238;2023-02-01T04:06:26;99133.54;;;3.68;73.62
56582;BME280;42463;52.214;21.238;2023-02-01T04:08:54;99134.41;;;3.66;73.74
56582;BME280;42463;52.214;21.238;2023-02-01T04:11:19;99130.33;;;3.63;73.68
56582;BME280;42463;52.214;21.238;2023-02-01T04:13:43;99135.09;;;3.62;73.87
56582;BME280;42463;52.214;21.238;2023-02-01T04:16:29;99132.53;;;3.60;74.31
56582;BME280;42463;52.214;21.238;2023-02-01T04:18:53;99137.71;;;3.59;74.04
56582;BME280;42463;52.214;21.238;2023-02-01T04:21:38;99129.63;;;3.57;74.19
56582;BME280;42463;52.214;21.238;2023-02-01T04:24:04;99127.98;;;3.54;74.62
56582;BME280;42463;52.214;21.238;2023-02-01T04:26:41;99132.19;;;3.53;74.63
56582;BME280;42463;52.214;21.238;2023-02-01T04:29:28;99131.90;;;3.51;74.74
56582;BME280;42463;52.214;21.238;2023-02-01T04:31:54;99132.55;;;3.55;74.84
56582;BME280;42463;52.214;21.238;2023-02-01T04:34:20;99138.63;;;3.56;75.31
56582;BME280;42463;52.214;21.238;2023-02-01T04:36:57;99137.31;;;3.55;75.13
56582;BME280;42463;52.214;21.238;2023-02-01T04:39:41;99138.13;;;3.55;75.03
56582;BME280;42463;52.214;21.238;2023-02-01T04:42:06;99137.47;;;3.57;75.07
56582;BME280;42463;52.214;21.238;2023-02-01T04:44:49;99137.02;;;3.56;74.65
56582;BME280;42463;52.214;21.238;2023-02-01T04:47:34;99140.83;;;3.56;74.32
56582;BME280;42463;52.214;21.238;2023-02-01T04:49:59;99148.05;;;3.58;74.42
56582;BME280;42463;52.214;21.238;2023-02-01T04:52:23;99140.20;;;3.60;74.58
56582;BME280;42463;52.214;21.238;2023-02-01T04:55:10;99150.60;;;3.60;73.93
56582;BME280;42463;52.214;21.238;2023-02-01T04:57:49;99147.06;;;3.63;73.78
56582;BME280;42463;52.214;21.238;2023-02-01T05:00:33;99157.78;;;3.65;73.74
56582;BME280;42463;52.214;21.238;2023-02-01T05:03:18;99160.77;;;3.68;73.48
56582;BME280;42463;52.214;21.238;2023-02-01T05:05:57;99160.27;;;3.71;73.09
56582;BME280;42463;52.214;21.238;2023-02-01T05:08:22;99165.48;;;3.69;73.07
56582;BME280;42463;52.214;21.238;2023-02-01T05:11:01;99159.73;;;3.66;72.90
56582;BME280;42463;52.214;21.238;2023-02-01T05:13:37;99166.95;;;3.74;72.95
56582;BME280;42463;52.214;21.238;2023-02-01T05:16:13;99165.11;;;3.78;72.38
56582;BME280;42463;52.214;21.238;2023-02-01T05:18:58;99166.16;;;3.74;71.71
56582;BME280;42463;52.214;21.238;2023-02-01T05:21:37;99165.63;;;3.74;72.35
56582;BME280;42463;52.214;21.238;2023-02-01T05:24:22;99163.61;;;3.76;72.07
56582;BME280;42463;52.214;21.238;2023-02-01T05:26:56;99159.91;;;3.75;71.76
56582;BME280;42463;52.214;21.238;2023-02-01T05:29:26;99159.66;;;3.77;71.85
56582;BME280;42463;52.214;21.238;2023-02-01T05:32:10;99155.80;;;3.76;71.85
56582;BME280;42463;52.214;21.238;2023-02-01T05:34:44;99159.48;;;3.76;71.98
56582;BME280;42463;52.214;21.238;2023-02-01T05:37:22;99154.23;;;3.76;71.82
56582;BME280;42463;52.214;21.238;2023-02-01T05:40:02;99156.33;;;3.79;71.47
56582;BME280;42463;52.214;21.238;2023-02-01T05:42:27;99159.29;;;3.82;71.82
56582;BME280;42463;52.214;21.238;2023-02-01T05:45:08;99159.15;;;3.84;71.48
56582;BME280;42463;52.214;21.238;2023-02-01T05:47:53;99156.60;;;3.83;70.99
56582;BME280;42463;52.214;21.238;2023-02-01T05:50:38;99154.05;;;3.84;71.17
56582;BME280;42463;52.214;21.238;2023-02-01T05:53:09;99159.64;;;3.85;70.72
56582;BME280;42463;52.214;21.238;2023-02-01T05:55:52;99145.77;;;3.82;70.99
56582;BME280;42463;52.214;21.238;2023-02-01T05:58:29;99156.77;;;3.86;70.70
56582;BME280;42463;52.214;21.238;2023-02-01T06:01:14;99161.45;;;3.87;71.27
56582;BME280;42463;52.214;21.238;2023-02-01T06:03:50;99160.50;;;3.88;71.06
56582;BME280;42463;52.214;21.238;2023-02-01T06:06:26;99159.28;;;3.92;71.07
56582;BME280;42463;52.214;21.238;2023-02-01T06:09:01;99161.15;;;3.95;70.82
56582;BME280;42463;52.214;21.238;2023-02-01T06:11:35;99158.34;;;3.93;70.67
56582;BME280;42463;52.214;21.238;2023-02-01T06:14:11;99160.75;;;3.93;70.83
56582;BME280;42463;52.214;21.238;2023-02-01T06:16:56;99160.11;;;3.90;70.46
56582;BME280;42463;52.214;21.238;2023-02-01T06:19:42;99157.84;;;3.86;70.21
56582;BME280;42463;52.214;21.238;2023-02-01T06:22:21;99158.27;;;3.86;70.47
56582;BME280;42463;52.214;21.238;2023-02-01T06:24:48;99154.46;;;3.86;70.38
56582;BME280;42463;52.214;21.238;2023-02-01T06:27:33;99151.95;;;3.90;70.59
56582;BME280;42463;52.214;21.238;2023-02-01T06:30:20;99146.27;;;3.90;70.30
56582;BME280;42463;52.214;21.238;2023-02-01T06:32:57;99148.06;;;3.88;70.55
56582;BME280;42463;52.214;21.238;2023-02-01T06:35:42;99150.35;;;3.87;70.66
56582;BME280;42463;52.214;21.238;2023-02-01T06:38:16;99139.00;;;3.89;70.64
56582;BME280;42463;52.214;21.238;2023-02-01T06:40:55;99141.73;;;3.89;70.41
56582;BME280;42463;52.214;21.238;2023-02-01T06:43:34;99135.41;;;3.89;70.28
56582;BME280;42463;52.214;21.238;2023-02-01T06:46:04;99136.14;;;3.88;70.11
56582;BME280;42463;52.214;21.238;2023-02-01T06:48:30;99138.09;;;3.89;70.32
56582;BME280;42463;52.214;21.238;2023-02-01T06:51:20;99136.33;;;3.89;70.17
56582;BME280;42463;52.214;21.238;2023-02-01T06:53:57;99139.38;;;3.89;70.45
56582;BME280;42463;52.214;21.238;2023-02-01T06:56:43;99140.90;;;3.90;70.33
56582;BME280;42463;52.214;21.238;2023-02-01T06:59:17;99140.55;;;3.97;70.83
56582;BME280;42463;52.214;21.238;2023-02-01T07:01:51;99141.72;;;4.03;70.37
56582;BME280;42463;52.214;21.238;2023-02-01T07:04:29;99142.27;;;4.04;69.91
56582;BME280;42463;52.214;21.238;2023-02-01T07:06:58;99141.20;;;4.04;70.04
56582;BME280;42463;52.214;21.238;2023-02-01T07:09:28;99145.89;;;4.03;69.81
56582;BME280;42463;52.214;21.238;2023-02-01T07:11:55;99148.81;;;4.01;69.90
56582;BME280;42463;52.214;21.238;2023-02-01T07:14:35;99145.39;;;4.02;69.92
56582;BME280;42463;52.214;21.238;2023-02-01T07:17:08;99147.92;;;3.99;70.42
56582;BME280;42463;52.214;21.238;2023-02-01T07:19:52;99157.39;;;4.01;70.54
56582;BME280;42463;52.214;21.238;2023-02-01T07:22:36;99156.76;;;4.04;70.37
56582;BME280;42463;52.214;21.238;2023-02-01T07:25:09;99152.67;;;4.04;70.51
56582;BME280;42463;52.214;21.238;2023-02-01T07:27:36;99146.85;;;3.99;70.63
56582;BME280;42463;52.214;21.238;2023-02-01T07:30:00;99149.24;;;3.98;70.58
56582;BME280;42463;52.214;21.238;2023-02-01T07:32:26;99153.69;;;4.00;71.03
56582;BME280;42463;52.214;21.238;2023-02-01T07:34:51;99149.77;;;4.06;70.94
56582;BME280;42463;52.214;21.238;2023-02-01T07:37:21;99146.58;;;4.05;70.25
56582;BME280;42463;52.214;21.238;2023-02-01T07:39:53;99145.27;;;4.07;70.53
56582;BME280;42463;52.214;21.238;2023-02-01T07:42:31;99143.70;;;4.07;70.01
56582;BME280;42463;52.214;21.238;2023-02-01T07:45:15;99152.94;;;4.04;70.05
56582;BME280;42463;52.214;21.238;2023-02-01T07:47:46;99155.55;;;4.02;69.88
56582;BME280;42463;52.214;21.238;2023-02-01T07:50:31;99156.33;;;4.04;70.41
56582;BME280;42463;52.214;21.238;2023-02-01T07:53:16;99162.98;;;4.03;70.02
56582;BME280;42463;52.214;21.238;2023-02-01T07:55:41;99154.71;;;4.04;70.10
56582;BME280;42463;52.214;21.238;2023-02-01T07:58:13;99150.89;;;4.06;70.64
56582;BME280;42463;52.214;21.238;2023-02-01T08:00:49;99149.27;;;4.05;70.02
56582;BME280;42463;52.214;21.238;2023-02-01T08:03:53;99151.98;;;4.09;70.52
56582;BME280;42463;52.214;21.238;2023-02-01T08:06:18;99146.30;;;4.13;70.59
56582;BME280;42463;52.214;21.238;2023-02-01T08:09:04;99149.41;;;4.14;70.73
56582;BME280;42463;52.214;21.238;2023-02-01T08:11:50;99151.29;;;4.16;70.48
56582;BME280;42463;52.214;21.238;2023-02-01T08:14:15;99154.96;;;4.17;70.68
56582;BME280;42463;52.214;21.238;2023-02-01T08:16:39;99151.90;;;4.16;70.85
56582;BME280;42463;52.214;21.238;2023-02-01T08:19:07;99149.98;;;4.15;70.81
56582;BME280;42463;52.214;21.238;2023-02-01T08:21:32;99150.75;;;4.16;70.95
56582;BME280;42463;52.214;21.238;2023-02-01T08:24:00;99149.06;;;4.15;71.27
56582;BME280;42463;52.214;21.238;2023-02-01T08:26:26;99149.23;;;4.16;71.51
56582;BME280;42463;52.214;21.238;2023-02-01T08:28:53;99152.97;;;4.15;71.84
56582;BME280;42463;52.214;21.238;2023-02-01T08:31:20;99153.55;;;4.17;72.14
56582;BME280;42463;52.214;21.238;2023-02-01T08:33:50;99152.11;;;4.14;71.75
56582;BME280;42463;52.214;21.238;2023-02-01T08:36:25;99157.20;;;4.15;71.85
56582;BME280;42463;52.214;21.238;2023-02-01T08:39:04;99160.41;;;4.14;72.23
56582;BME280;42463;52.214;21.238;2023-02-01T08:41:32;99155.04;;;4.10;72.09
56582;BME280;42463;52.214;21.238;2023-02-01T08:44:02;99160.86;;;4.12;72.10
56582;BME280;42463;52.214;21.238;2023-02-01T08:46:47;99165.23;;;4.13;72.13
56582;BME280;42463;52.214;21.238;2023-02-01T08:49:12;99156.79;;;4.12;72.06
56582;BME280;42463;52.214;21.238;2023-02-01T08:51:37;99161.13;;;4.08;71.88
56582;BME280;42463;52.214;21.238;2023-02-01T08:54:02;99161.45;;;4.09;71.98
56582;BME280;42463;52.214;21.238;2023-02-01T08:56:27;99156.64;;;4.06;72.61
56582;BME280;42463;52.214;21.238;2023-02-01T08:58:51;99165.27;;;4.06;72.46
56582;BME280;42463;52.214;21.238;2023-02-01T09:01:17;99165.29;;;4.07;73.01
56582;BME280;42463;52.214;21.238;2023-02-01T09:03:44;99163.98;;;4.06;73.14
56582;BME280;42463;52.214;21.238;2023-02-01T09:06:11;99166.45;;;4.03;73.00
56582;BME280;42463;52.214;21.238;2023-02-01T09:08:47;99172.86;;;4.01;73.11
56582;BME280;42463;52.214;21.238;2023-02-01T09:11:19;99166.59;;;3.99;73.57
56582;BME280;42463;52.214;21.238;2023-02-01T09:13:45;99166.61;;;4.00;73.80
56582;BME280;42463;52.214;21.238;2023-02-01T09:16:09;99171.59;;;4.02;74.07
56582;BME280;42463;52.214;21.238;2023-02-01T09:18:35;99163.48;;;4.02;74.09
56582;BME280;42463;52.214;21.238;2023-02-01T09:21:05;99162.84;;;4.02;73.83
56582;BME280;42463;52.214;21.238;2023-02-01T09:23:32;99155.78;;;4.04;74.00
56582;BME280;42463;52.214;21.238;2023-02-01T09:26:01;99157.86;;;4.08;74.24
56582;BME280;42463;52.214;21.238;2023-02-01T09:28:27;99155.48;;;4.13;74.00
56582;BME280;42463;52.214;21.238;2023-02-01T09:30:56;99159.30;;;4.14;73.83
56582;BME280;42463;52.214;21.238;2023-02-01T09:33:30;99155.91;;;4.14;72.99
56582;BME280;42463;52.214;21.238;2023-02-01T09:35:59;99159.39;;;4.13;73.13
56582;BME280;42463;52.214;21.238;2023-02-01T09:38:24;99158.56;;;4.15;72.33
56582;BME280;42463;52.214;21.238;2023-02-01T09:40:50;99155.77;;;4.17;72.07
56582;BME280;42463;52.214;21.238;2023-02-01T09:43:25;99156.67;;;4.20;71.82
56582;BME280;42463;52.214;21.238;2023-02-01T09:46:02;99145.14;;;4.23;71.70
56582;BME280;42463;52.214;21.238;2023-02-01T09:48:34;99142.90;;;4.29;70.87
56582;BME280;42463;52.214;21.238;2023-02-01T09:51:15;99134.45;;;4.33;70.62
56582;BME280;42463;52.214;21.238;2023-02-01T09:53:51;99139.56;;;4.41;70.54
56582;BME280;42463;52.214;21.238;2023-02-01T09:56:26;99140.16;;;4.45;69.70
56582;BME280;42463;52.214;21.238;2023-02-01T09:59:01;99135.91;;;4.52;69.34
56582;BME280;42463;52.214;21.238;2023-02-01T10:01:32;99126.73;;;4.59;68.72
56582;BME280;42463;52.214;21.238;2023-02-01T10:04:06;99135.80;;;4.67;68.18
56582;BME280;42463;52.214;21.238;2023-02-01T10:06:42;99139.38;;;4.73;67.98
56582;BME280;42463;52.214;21.238;2023-02-01T10:09:25;99140.25;;;4.78;67.61
56582;BME280;42463;52.214;21.238;2023-02-01T10:12:22;99143.36;;;4.86;67.92
56582;BME280;42463;52.214;21.238;2023-02-01T10:15:02;99145.52;;;4.93;67.89
56582;BME280;42463;52.214;21.238;2023-02-01T10:17:53;99143.67;;;5.00;67.11
56582;BME280;42463;52.214;21.238;2023-02-01T10:20:26;99135.66;;;4.95;65.90
56582;BME280;42463;52.214;21.238;2023-02-01T10:23:15;99137.36;;;4.94;66.12
56582;BME280;42463;52.214;21.238;2023-02-01T10:25:53;99136.81;;;4.94;66.08
56582;BME280;42463;52.214;21.238;2023-02-01T10:28:39;99137.34;;;4.93;66.44
56582;BME280;42463;52.214;21.238;2023-02-01T10:31:09;99133.45;;;4.92;65.61
56582;BME280;42463;52.214;21.238;2023-02-01T10:33:51;99135.84;;;4.93;66.03
56582;BME280;42463;52.214;21.238;2023-02-01T10:36:34;99136.62;;;4.95;66.11
56582;BME280;42463;52.214;21.238;2023-02-01T10:39:15;99140.20;;;5.02;65.85
56582;BME280;42463;52.214;21.238;2023-02-01T10:41:41;99136.66;;;5.02;65.58
56582;BME280;42463;52.214;21.238;2023-02-01T10:44:19;99140.78;;;5.06;65.93
56582;BME280;42463;52.214;21.238;2023-02-01T10:46:46;99142.02;;;5.10;65.99
56582;BME280;42463;52.214;21.238;2023-02-01T10:49:15;99154.59;;;5.10;65.85
56582;BME280;42463;52.214;21.238;2023-02-01T10:51:45;99146.32;;;5.06;65.84
56582;BME280;42463;52.214;21.238;2023-02-01T10:54:14;99143.55;;;5.03;65.77
56582;BME280;42463;52.214;21.238;2023-02-01T10:56:50;99140.28;;;5.04;66.08
56582;BME280;42463;52.214;21.238;2023-02-01T10:59:19;99144.12;;;5.06;66.12
56582;BME280;42463;52.214;21.238;2023-02-01T11:01:46;99144.64;;;5.09;66.03
56582;BME280;42463;52.214;21.238;2023-02-01T11:04:25;99144.92;;;5.10;66.18
56582;BME280;42463;52.214;21.238;2023-02-01T11:06:53;99142.38;;;5.09;66.26
56582;BME280;42463;52.214;21.238;2023-02-01T11:09:29;99144.98;;;5.11;66.19
56582;BME280;42463;52.214;21.238;2023-02-01T11:12:04;99137.84;;;5.16;66.08
56582;BME280;42463;52.214;21.238;2023-02-01T11:14:41;99129.62;;;5.16;65.04
56582;BME280;42463;52.214;21.238;2023-02-01T11:17:26;99134.64;;;5.14;65.86
56582;BME280;42463;52.214;21.238;2023-02-01T11:20:15;99134.51;;;5.16;65.19
56582;BME280;42463;52.214;21.238;2023-02-01T11:22:55;99132.00;;;5.20;65.93
56582;BME280;42463;52.214;21.238;2023-02-01T11:25:40;99131.55;;;5.26;65.61
56582;BME280;42463;52.214;21.238;2023-02-01T11:28:12;99127.88;;;5.25;65.00
56582;BME280;42463;52.214;21.238;2023-02-01T11:30:55;99132.83;;;5.25;65.06
56582;BME280;42463;52.214;21.238;2023-02-01T11:33:36;99130.52;;;5.25;65.26
56582;BME280;42463;52.214;21.238;2023-02-01T11:36:25;99124.50;;;5.27;65.38
56582;BME280;42463;52.214;21.238;2023-02-01T11:39:21;99122.23;;;5.30;65.36
56582;BME280;42463;52.214;21.238;2023-02-01T11:42:02;99121.21;;;5.34;65.37
56582;BME280;42463;52.214;21.238;2023-02-01T11:44:36;99120.02;;;5.38;65.52
56582;BME280;42463;52.214;21.238;2023-02-01T11:47:21;99114.52;;;5.37;65.37
56582;BME280;42463;52.214;21.238;2023-02-01T11:49:55;99116.63;;;5.33;65.13
56582;BME280;42463;52.214;21.238;2023-02-01T11:52:53;99116.96;;;5.31;65.61
56582;BME280;42463;52.214;21.238;2023-02-01T11:55:38;99118.84;;;5.29;65.64
56582;BME280;42463;52.214;21.238;2023-02-01T11:58:18;99106.14;;;5.28;65.28
56582;BME280;42463;52.214;21.238;2023-02-01T12:01:08;99113.96;;;5.26;65.27
56582;BME280;42463;52.214;21.238;2023-02-01T12:04:16;99115.17;;;5.24;65.83
56582;BME280;42463;52.214;21.238;2023-02-01T12:06:46;99116.84;;;5.24;66.09
56582;BME280;42463;52.214;21.238;2023-02-01T12:09:34;99115.44;;;5.21;65.76
56582;BME280;42463;52.214;21.238;2023-02-01T12:12:14;99116.76;;;5.21;66.31
56582;BME280;42463;52.214;21.238;2023-02-01T12:14:56;99116.73;;;5.28;66.63
56582;BME280;42463;52.214;21.238;2023-02-01T12:17:48;99111.36;;;5.33;66.92
56582;BME280;42463;52.214;21.238;2023-02-01T12:20:24;99105.95;;;5.37;66.51
56582;BME280;42463;52.214;21.238;2023-02-01T12:22:59;99098.23;;;5.38;66.38
56582;BME280;42463;52.214;21.238;2023-02-01T12:26:00;99098.48;;;5.36;66.23
56582;BME280;42463;52.214;21.238;2023-02-01T12:28:39;99093.58;;;5.35;66.52
56582;BME280;42463;52.214;21.238;2023-02-01T12:31:26;99091.55;;;5.38;67.02
56582;BME280;42463;52.214;21.238;2023-02-01T12:34:08;99098.38;;;5.42;66.90
56582;BME280;42463;52.214;21.238;2023-02-01T12:36:43;99100.08;;;5.40;66.54
56582;BME280;42463;52.214;21.238;2023-02-01T12:39:20;99101.64;;;5.40;66.92
56582;BME280;42463;52.214;21.238;2023-02-01T12:41:51;99100.10;;;5.42;66.69
56582;BME280;42463;52.214;21.238;2023-02-01T12:44:31;99099.47;;;5.43;66.70
56582;BME280;42463;52.214;21.238;2023-02-01T12:46:59;99100.57;;;5.35;66.44
56582;BME280;42463;52.214;21.238;2023-02-01T12:49:34;99111.23;;;5.32;66.52
56582;BME280;42463;52.214;21.238;2023-02-01T12:52:02;99109.43;;;5.35;66.94
56582;BME280;42463;52.214;21.238;2023-02-01T12:54:46;99102.70;;;5.38;66.81
56582;BME280;42463;52.214;21.238;2023-02-01T12:57:17;99107.38;;;5.43;67.06
56582;BME280;42463;52.214;21.238;2023-02-01T12:59:46;99110.96;;;5.47;67.38
56582;BME280;42463;52.214;21.238;2023-02-01T13:02:19;99112.98;;;5.51;67.26
56582;BME280;42463;52.214;21.238;2023-02-01T13:04:56;99109.86;;;5.55;67.03
56582;BME280;42463;52.214;21.238;2023-02-01T13:07:29;99113.45;;;5.53;66.53
56582;BME280;42463;52.214;21.238;2023-02-01T13:09:59;99112.17;;;5.50;66.65
56582;BME280;42463;52.214;21.238;2023-02-01T13:12:28;99106.67;;;5.43;66.88
56582;BME280;42463;52.214;21.238;2023-02-01T13:14:56;99114.70;;;5.43;67.06
56582;BME280;42463;52.214;21.238;2023-02-01T13:17:25;99112.36;;;5.47;67.24
56582;BME280;42463;52.214;21.238;2023-02-01T13:19:56;99110.04;;;5.51;67.13
56582;BME280;42463;52.214;21.238;2023-02-01T13:22:25;99107.91;;;5.54;67.14
56582;BME280;42463;52.214;21.238;2023-02-01T13:24:55;99110.52;;;5.57;67.41
56582;BME280;42463;52.214;21.238;2023-02-01T13:27:21;99110.20;;;5.61;67.20
56582;BME280;42463;52.214;21.238;2023-02-01T13:29:54;99112.98;;;5.59;66.84
56582;BME280;42463;52.214;21.238;2023-02-01T13:32:33;99109.42;;;5.59;67.05
56582;BME280;42463;52.214;21.238;2023-02-01T13:35:26;99112.23;;;5.59;66.38
56582;BME280;42463;52.214;21.238;2023-02-01T13:38:09;99115.90;;;5.61;66.81
56582;BME280;42463;52.214;21.238;2023-02-01T13:40:44;99110.23;;;5.59;66.46
56582;BME280;42463;52.214;21.238;2023-02-01T13:43:14;99110.61;;;5.55;66.53
56582;BME280;42463;52.214;21.238;2023-02-01T13:45:57;99116.19;;;5.53;66.82